createdAt,value
2022-10-01T00:01:22.938Z,19.20
2022-10-01T00:06:30.355Z,18.50
2022-10-01T00:11:37.236Z,18.00
2022-10-01T00:16:44.117Z,20.90
2022-10-01T00:21:51.224Z,20.40
2022-10-01T00:26:58.731Z,18.90
2022-10-01T00:32:06.108Z,18.50
2022-10-01T00:37:13.862Z,21.60
2022-10-01T00:42:24.462Z,22.20
2022-10-01T00:47:35.019Z,19.90
2022-10-01T00:52:44.999Z,18.30
2022-10-01T00:57:52.988Z,19.40
2022-10-01T01:03:00.244Z,20.60
2022-10-01T01:08:08.978Z,20.20
2022-10-01T01:13:25.343Z,20.00
2022-10-01T01:18:40.466Z,19.90
2022-10-01T01:24:30.957Z,19.80
2022-10-01T01:29:44.498Z,19.00
2022-10-01T01:34:55.600Z,21.60
2022-10-01T01:40:05.460Z,23.80
2022-10-01T01:45:16.015Z,21.80
2022-10-01T01:50:25.545Z,20.70
2022-10-01T01:55:33.476Z,21.50
2022-10-01T02:00:41.518Z,20.90
2022-10-01T02:06:01.331Z,20.80
2022-10-01T02:11:21.693Z,20.20
2022-10-01T02:16:36.372Z,22.40
2022-10-01T02:21:50.753Z,20.10
2022-10-01T02:26:59.930Z,19.20
2022-10-01T02:32:07.658Z,17.20
2022-10-01T02:37:15.703Z,19.10
2022-10-01T02:42:25.067Z,21.20
2022-10-01T02:47:35.966Z,16.30
2022-10-01T02:52:47.252Z,18.40
2022-10-01T02:57:54.863Z,16.40
2022-10-01T03:03:01.871Z,17.90
2022-10-01T03:08:08.893Z,20.80
2022-10-01T03:13:16.482Z,18.40
2022-10-01T03:18:23.570Z,16.80
2022-10-01T03:23:30.571Z,19.10
2022-10-01T03:28:37.468Z,18.60
2022-10-01T03:38:49.808Z,19.30
2022-10-01T03:44:00.422Z,20.00
2022-10-01T03:49:08.136Z,21.90
2022-10-01T03:54:15.285Z,20.80
2022-10-01T03:59:22.334Z,21.00
2022-10-01T04:04:29.491Z,23.00
2022-10-01T04:09:37.762Z,21.30
2022-10-01T04:14:44.859Z,24.20
2022-10-01T04:19:51.659Z,22.70
2022-10-01T04:30:03.920Z,23.10
2022-10-01T04:35:11.780Z,23.30
2022-10-01T04:40:19.075Z,24.20
2022-10-01T04:45:26.564Z,23.30
2022-10-01T04:50:33.866Z,22.80
2022-10-01T04:55:41.177Z,22.10
2022-10-01T05:00:49.402Z,22.50
2022-10-01T05:05:56.604Z,21.20
2022-10-01T05:11:03.474Z,23.20
2022-10-01T05:21:16.076Z,25.60
2022-10-01T05:26:23.402Z,21.70
2022-10-01T05:31:30.250Z,21.00
2022-10-01T05:36:37.382Z,19.30
2022-10-01T05:41:44.398Z,22.00
2022-10-01T05:46:51.590Z,19.20
2022-10-01T05:51:58.931Z,20.80
2022-10-01T05:57:06.174Z,23.50
2022-10-01T06:02:13.408Z,22.00
2022-10-01T06:07:20.628Z,22.10
2022-10-01T06:12:27.838Z,20.00
2022-10-01T06:17:35.354Z,22.40
2022-10-01T06:22:43.165Z,21.40
2022-10-01T06:27:58.321Z,21.80
2022-10-01T06:33:07.390Z,19.30
2022-10-01T06:38:14.810Z,22.90
2022-10-01T06:43:21.936Z,21.20
2022-10-01T06:48:29.304Z,21.50
2022-10-01T06:53:36.301Z,21.10
2022-10-01T06:58:43.609Z,20.30
2022-10-01T07:03:51.326Z,23.00
2022-10-01T07:08:58.738Z,20.50
2022-10-01T07:14:06.076Z,22.00
2022-10-01T07:19:13.271Z,20.20
2022-10-01T07:24:20.971Z,22.50
2022-10-01T07:29:27.964Z,23.40
2022-10-01T07:34:35.168Z,21.30
2022-10-01T07:39:42.278Z,22.40
2022-10-01T07:44:49.892Z,22.30
2022-10-01T07:49:57.508Z,23.10
2022-10-01T07:55:11.122Z,20.80
2022-10-01T08:00:19.697Z,19.20
2022-10-01T08:05:29.261Z,21.80
2022-10-01T08:10:38.297Z,21.60
2022-10-01T08:15:50.230Z,22.40
2022-10-01T08:20:57.256Z,22.30
2022-10-01T08:26:06.179Z,21.90
2022-10-01T08:31:13.663Z,22.40
2022-10-01T08:36:21.091Z,21.40
2022-10-01T08:41:43.841Z,21.10
2022-10-01T08:46:51.670Z,20.80
2022-10-01T08:52:04.850Z,20.20
2022-10-01T08:57:17.373Z,19.70
2022-10-01T09:02:27.242Z,21.20
2022-10-01T09:07:48.822Z,21.00
2022-10-01T09:13:16.038Z,21.00
2022-10-01T09:18:32.299Z,20.20
2022-10-01T09:23:54.643Z,21.60
2022-10-01T09:29:04.713Z,19.60
2022-10-01T09:34:17.219Z,20.20
2022-10-01T09:39:29.950Z,18.20
2022-10-01T09:44:37.886Z,20.30
2022-10-01T09:49:46.432Z,18.20
2022-10-01T09:54:59.053Z,19.00
2022-10-01T10:00:11.183Z,21.00
2022-10-01T10:05:20.557Z,20.30
2022-10-01T10:10:35.827Z,20.10
2022-10-01T10:15:51.919Z,21.20
2022-10-01T10:21:00.521Z,21.00
2022-10-01T10:26:09.706Z,21.60
2022-10-01T10:31:20.693Z,21.40
2022-10-01T10:36:31.082Z,21.30
2022-10-01T10:41:39.019Z,21.00
2022-10-01T10:46:46.467Z,18.60
2022-10-01T10:51:55.773Z,17.70
2022-10-01T10:57:18.261Z,17.80
2022-10-01T11:02:26.571Z,23.00
2022-10-01T11:07:34.549Z,22.60
2022-10-01T11:12:56.730Z,18.80
2022-10-01T11:18:17.529Z,19.30
2022-10-01T11:23:50.943Z,17.60
2022-10-01T11:29:15.556Z,17.60
2022-10-01T11:34:54.159Z,18.60
2022-10-01T11:40:05.288Z,20.20
2022-10-01T11:45:21.614Z,17.00
2022-10-01T11:50:31.390Z,18.00
2022-10-01T11:56:00.285Z,14.00
2022-10-01T12:01:13.062Z,12.50
2022-10-01T12:06:34.234Z,12.80
2022-10-01T12:11:48.312Z,15.00
2022-10-01T12:17:02.318Z,13.10
2022-10-01T12:22:16.262Z,14.30
2022-10-01T12:27:38.012Z,15.00
2022-10-01T12:33:04.968Z,15.10
2022-10-01T12:38:25.663Z,13.70
2022-10-01T12:43:48.386Z,13.80
2022-10-01T12:49:05.561Z,11.80
2022-10-01T12:54:31.291Z,12.70
2022-10-01T12:59:58.043Z,14.10
2022-10-01T13:05:24.506Z,12.40
2022-10-01T13:10:45.521Z,13.00
2022-10-01T13:16:01.089Z,12.80
2022-10-01T13:21:15.912Z,12.50
2022-10-01T13:26:32.817Z,12.10
2022-10-01T13:36:47.260Z,13.70
2022-10-01T13:41:59.043Z,12.80
2022-10-01T13:47:10.145Z,12.60
2022-10-01T13:52:24.565Z,13.00
2022-10-01T13:57:36.420Z,13.60
2022-10-01T14:02:58.593Z,12.20
2022-10-01T14:08:15.470Z,12.10
2022-10-01T14:13:40.591Z,12.00
2022-10-01T14:18:51.160Z,12.90
2022-10-01T14:24:06.764Z,11.40
2022-10-01T14:29:27.672Z,11.80
2022-10-01T14:34:55.041Z,11.00
2022-10-01T14:40:19.845Z,14.00
2022-10-01T14:45:27.160Z,15.00
2022-10-01T14:50:35.383Z,15.00
2022-10-01T14:55:42.634Z,15.30
2022-10-01T15:00:52.959Z,13.90
2022-10-01T15:06:11.923Z,17.90
2022-10-01T15:11:22.839Z,18.00
2022-10-01T15:16:31.800Z,17.50
2022-10-01T15:21:41.346Z,13.40
2022-10-01T15:26:49.984Z,15.70
2022-10-01T15:31:59.666Z,9.40
2022-10-01T15:37:07.589Z,11.90
2022-10-01T15:42:30.614Z,14.40
2022-10-01T15:47:38.844Z,14.50
2022-10-01T15:53:00.586Z,16.50
2022-10-01T15:58:18.842Z,14.70
2022-10-01T16:03:29.520Z,17.40
2022-10-01T16:08:50.445Z,18.00
2022-10-01T16:14:22.387Z,15.60
2022-10-01T16:19:33.622Z,17.10
2022-10-01T16:24:46.900Z,15.10
2022-10-01T16:29:59.103Z,14.20
2022-10-01T16:35:24.191Z,15.30
2022-10-01T16:40:33.565Z,15.00
2022-10-01T16:45:42.900Z,15.90
2022-10-01T16:50:53.848Z,14.70
2022-10-01T16:56:00.738Z,12.50
2022-10-01T17:01:10.952Z,13.70
2022-10-01T17:06:18.674Z,17.10
2022-10-01T17:11:30.225Z,13.90
2022-10-01T17:16:37.542Z,17.30
2022-10-01T17:21:45.915Z,16.80
2022-10-01T17:26:53.017Z,16.20
2022-10-01T17:32:00.097Z,17.90
2022-10-01T17:37:07.227Z,17.20
2022-10-01T17:42:16.849Z,18.20
2022-10-01T17:47:24.198Z,16.90
2022-10-01T17:52:33.604Z,18.90
2022-10-01T17:57:40.643Z,19.30
2022-10-01T18:02:47.966Z,18.60
2022-10-01T18:07:55.154Z,18.90
2022-10-01T18:13:02.201Z,18.00
2022-10-01T18:19:31.074Z,20.50
2022-10-01T18:28:43.950Z,22.20
2022-10-01T18:33:53.800Z,21.00
2022-10-01T18:39:22.520Z,19.70
2022-10-01T18:44:29.516Z,19.60
2022-10-01T18:50:18.967Z,19.10
2022-10-01T18:55:40.573Z,19.40
2022-10-01T19:00:53.826Z,17.30
2022-10-01T19:06:23.437Z,18.40
2022-10-01T19:11:40.514Z,20.50
2022-10-01T19:22:04.056Z,9.00
2022-10-01T19:27:25.911Z,9.60
2022-10-01T19:32:40.860Z,7.90
2022-10-01T19:37:52.782Z,4.30
2022-10-01T19:43:08.081Z,4.20
2022-10-01T19:48:20.426Z,3.40
2022-10-01T19:53:30.352Z,2.20
2022-10-01T19:58:37.427Z,2.50
2022-10-01T20:03:50.765Z,1.70
2022-10-01T20:09:02.167Z,2.20
2022-10-01T20:14:44.159Z,2.50
2022-10-01T20:20:00.301Z,2.10
2022-10-01T20:25:15.502Z,2.00
2022-10-01T20:30:24.702Z,2.30
2022-10-01T20:35:38.434Z,3.40
2022-10-01T20:40:54.650Z,3.30
2022-10-01T20:46:07.856Z,2.90
2022-10-01T20:51:20.950Z,3.40
2022-10-01T20:56:33.467Z,3.20
2022-10-01T21:01:46.501Z,2.70
2022-10-01T21:06:57.714Z,3.90
2022-10-01T21:12:08.503Z,4.10
2022-10-01T21:17:38.916Z,3.80
2022-10-01T21:23:01.506Z,5.10
2022-10-01T21:28:27.978Z,5.00
2022-10-01T21:33:45.994Z,5.60
2022-10-01T21:39:01.783Z,5.20
2022-10-01T21:44:32.221Z,4.00
2022-10-01T21:49:47.318Z,4.80
2022-10-01T21:55:19.783Z,3.80
2022-10-01T22:00:29.280Z,3.50
2022-10-01T22:05:45.519Z,4.30
2022-10-01T22:10:57.260Z,4.00
2022-10-01T22:16:09.602Z,4.30
2022-10-01T22:21:21.185Z,3.30
2022-10-01T22:26:31.668Z,4.80
2022-10-01T22:31:41.059Z,3.40
2022-10-01T22:36:54.020Z,3.10
2022-10-01T22:42:06.889Z,4.90
2022-10-01T22:47:35.847Z,3.50
2022-10-01T22:52:53.756Z,4.50
2022-10-01T22:58:22.757Z,4.10
2022-10-01T23:03:41.277Z,3.50
2022-10-01T23:08:55.080Z,4.20
2022-10-01T23:14:15.474Z,3.60
2022-10-01T23:19:38.331Z,4.30
2022-10-01T23:24:56.688Z,3.80
2022-10-01T23:30:11.869Z,4.00
2022-10-01T23:35:22.195Z,4.20
2022-10-01T23:40:32.976Z,3.90
2022-10-01T23:45:45.030Z,4.30
2022-10-01T23:50:59.838Z,3.80
2022-10-01T23:56:39.245Z,4.70
